Flood From: 18-02-2018 10:00 Until: 19-02-2018 06:00 warning for: Flood Level: Yellow info button

Although rather usual in this region, locally or potentially dangerous phenomena are expected. (such as local winds, summer thunderstorms, rising streams or high waves) Be aware and pay attention to the latest weather updates, especially if you carry out activities exposed to weather or close to a stream or shoreline. 


Meteo18 Weather Cam more information Meteo18 Weather Cam


Thunder radar more information blitzortung!


Rain radar more information rain snow radar


Visit our other weather sites:

Template documentation
and downloads

And another site



Weather Underground History page Text

Daily Summary for October 25, 2017 Units:  Both    English   Metric
« Previous Day
Next Day »
Daily Weekly Monthly Yearly Custom
  High: Low: Average:
Temperature: TemperatureC °F /  -17.8 °C 11.9 °F /  -11.2 °C 15.4 °F /  -9.2 °C
Dew Point: DewpointC °F /  -17.8 °C 11.4 °F /  -11.4 °C 13.5 °F /  -10.3 °C
Humidity: Humidity % 67 % 89 %
Wind Speed: WindSpeedKMH mph /  0 km/h - 1.4 mph /  2.3 km/h
Wind Gust: WindSpeedGustKMH mph /  0 km/h - -
Wind:- - South
Pressure: PressurehPa in /  0 hPa 1024.3 in /  34682.8 hPa -
Precipitation: 0.3 in /  7.62 mm    
Historical Graphs
 
 
Tabular Data for October 25, 2017
Time Temperature Dew Point Pressure Wind Wind Speed Wind Gust Humidity Rainfall Rate (Hourly)
TemperatureC °F /  -17.8 °C DewpointC °F /  -17.8 °C PressurehPa in /  0 hPa Calm     Humidity % HourlyPrecipMM in /  0 mm
00:02 14.1 °F /  -9.9 °C 13.6 °F /  -10.2 °C 1026.0 in /  34740.4 hPa Calm     97 % 0.0 in /  0 mm
00:12 14.1 °F /  -9.9 °C 13.6 °F /  -10.2 °C 1026.0 in /  34740.4 hPa Calm   1.6 mph /  2.6 km/h 97 % 0.0 in /  0 mm
00:17 14.1 °F /  -9.9 °C 13.6 °F /  -10.2 °C 1026.3 in /  34750.5 hPa SSW 1.6 mph /  2.6 km/h 4.8 mph /  7.7 km/h 97 % 0.0 in /  0 mm
00:22 14.1 °F /  -9.9 °C 13.6 °F /  -10.2 °C 1026.3 in /  34750.5 hPa Calm   4.8 mph /  7.7 km/h 97 % 0.0 in /  0 mm
00:27 14.0 °F /  -10 °C 13.5 °F /  -10.3 °C 1026.0 in /  34740.4 hPa SSE 3.2 mph /  5.1 km/h 4.8 mph /  7.7 km/h 97 % 0.0 in /  0 mm
00:32 13.9 °F /  -10.1 °C 13.4 °F /  -10.3 °C 1026.0 in /  34740.4 hPa SE 3.2 mph /  5.1 km/h 6.4 mph /  10.3 km/h 97 % 0.0 in /  0 mm
00:37 13.9 °F /  -10.1 °C 13.4 °F /  -10.3 °C 1025.6 in /  34726.8 hPa South 3.2 mph /  5.1 km/h 6.4 mph /  10.3 km/h 97 % 0.0 in /  0 mm
00:42 13.9 °F /  -10.1 °C 13.4 °F /  -10.3 °C 1025.6 in /  34726.8 hPa SSE 1.6 mph /  2.6 km/h 6.4 mph /  10.3 km/h 97 % 0.0 in /  0 mm
00:52 13.9 °F /  -10.1 °C 13.4 °F /  -10.3 °C 1026.0 in /  34740.4 hPa Calm   4.8 mph /  7.7 km/h 97 % 0.0 in /  0 mm
00:57 13.9 °F /  -10.1 °C 13.4 °F /  -10.3 °C 1026.0 in /  34740.4 hPa South 1.6 mph /  2.6 km/h 3.2 mph /  5.1 km/h 97 % 0.0 in /  0 mm
01:02 13.9 °F /  -10.1 °C 13.4 °F /  -10.3 °C 1025.6 in /  34726.8 hPa Calm   3.2 mph /  5.1 km/h 97 % 0.0 in /  0 mm
01:12 13.9 °F /  -10.1 °C 13.4 °F /  -10.3 °C 1025.6 in /  34726.8 hPa SW 1.6 mph /  2.6 km/h 3.2 mph /  5.1 km/h 97 % 0.0 in /  0 mm
01:22 13.9 °F /  -10.1 °C 13.4 °F /  -10.3 °C 1025.6 in /  34726.8 hPa SSE 1.6 mph /  2.6 km/h 4.8 mph /  7.7 km/h 97 % 0.0 in /  0 mm
01:27 13.8 °F /  -10.1 °C 13.3 °F /  -10.4 °C 1025.6 in /  34726.8 hPa South 3.2 mph /  5.1 km/h 11.3 mph /  18.2 km/h 97 % 0.0 in /  0 mm
01:32 13.8 °F /  -10.1 °C 13.3 °F /  -10.4 °C 1025.6 in /  34726.8 hPa SW 3.2 mph /  5.1 km/h 11.3 mph /  18.2 km/h 97 % 0.0 in /  0 mm
01:42 13.8 °F /  -10.1 °C 13.3 °F /  -10.4 °C 1025.3 in /  34716.7 hPa SE 1.6 mph /  2.6 km/h 9.7 mph /  15.6 km/h 97 % 0.3 in /  7.62 mm
01:47 13.8 °F /  -10.1 °C 13.3 °F /  -10.4 °C 1025.3 in /  34716.7 hPa SE 6.4 mph /  10.3 km/h 8.0 mph /  12.9 km/h 97 % 0.3 in /  7.62 mm
01:52 13.8 °F /  -10.1 °C 13.3 °F /  -10.4 °C 1025.6 in /  34726.8 hPa South 3.2 mph /  5.1 km/h 8.0 mph /  12.9 km/h 97 % 0.3 in /  7.62 mm
01:57 13.8 °F /  -10.1 °C 13.3 °F /  -10.4 °C 1025.6 in /  34726.8 hPa SE 3.2 mph /  5.1 km/h 9.7 mph /  15.6 km/h 97 % 0.3 in /  7.62 mm
02:02 13.8 °F /  -10.1 °C 13.3 °F /  -10.4 °C 1025.6 in /  34726.8 hPa SW 6.4 mph /  10.3 km/h 9.7 mph /  15.6 km/h 97 % 0.3 in /  7.62 mm
02:07 13.8 °F /  -10.1 °C 13.3 °F /  -10.4 °C 1025.6 in /  34726.8 hPa SSW 4.8 mph /  7.7 km/h 11.3 mph /  18.2 km/h 97 % 0.3 in /  7.62 mm
02:12 13.8 °F /  -10.1 °C 13.3 °F /  -10.4 °C 1025.6 in /  34726.8 hPa SW 3.2 mph /  5.1 km/h 11.3 mph /  18.2 km/h 97 % 0.3 in /  7.62 mm
02:17 13.8 °F /  -10.1 °C 13.3 °F /  -10.4 °C 1025.6 in /  34726.8 hPa SSW 1.6 mph /  2.6 km/h 11.3 mph /  18.2 km/h 97 % 0.3 in /  7.62 mm
02:22 13.8 °F /  -10.1 °C 13.3 °F /  -10.4 °C 1025.6 in /  34726.8 hPa Calm   11.3 mph /  18.2 km/h 97 % 0.3 in /  7.62 mm
02:32 13.7 °F /  -10.2 °C 13.2 °F /  -10.4 °C 1025.6 in /  34726.8 hPa SE 4.8 mph /  7.7 km/h 6.4 mph /  10.3 km/h 97 % 0.3 in /  7.62 mm
02:37 13.7 °F /  -10.2 °C 13.2 °F /  -10.4 °C 1025.6 in /  34726.8 hPa SSW 4.8 mph /  7.7 km/h 9.7 mph /  15.6 km/h 97 % 0.0 in /  0 mm
02:42 13.7 °F /  -10.2 °C 13.2 °F /  -10.4 °C 1025.6 in /  34726.8 hPa South 1.6 mph /  2.6 km/h 9.7 mph /  15.6 km/h 97 % 0.0 in /  0 mm
02:52 13.7 °F /  -10.2 °C 13.2 °F /  -10.4 °C 1025.3 in /  34716.7 hPa SE 1.6 mph /  2.6 km/h 9.7 mph /  15.6 km/h 97 % 0.0 in /  0 mm
02:57 13.7 °F /  -10.2 °C 13.2 °F /  -10.4 °C 1025.3 in /  34716.7 hPa SE 3.2 mph /  5.1 km/h 8.0 mph /  12.9 km/h 97 % 0.0 in /  0 mm
03:02 13.7 °F /  -10.2 °C 13.2 °F /  -10.4 °C 1025.3 in /  34716.7 hPa SE 4.8 mph /  7.7 km/h 8.0 mph /  12.9 km/h 97 % 0.0 in /  0 mm
03:07 13.6 °F /  -10.2 °C 13.1 °F /  -10.5 °C 1025.3 in /  34716.7 hPa SSE 1.6 mph /  2.6 km/h 6.4 mph /  10.3 km/h 97 % 0.0 in /  0 mm
03:12 13.6 °F /  -10.2 °C 13.1 °F /  -10.5 °C 1025.3 in /  34716.7 hPa South 4.8 mph /  7.7 km/h 6.4 mph /  10.3 km/h 97 % 0.0 in /  0 mm
03:17 13.6 °F /  -10.2 °C 13.1 °F /  -10.5 °C 1025.6 in /  34726.8 hPa SSW 1.6 mph /  2.6 km/h 9.7 mph /  15.6 km/h 97 % 0.0 in /  0 mm
03:27 13.6 °F /  -10.2 °C 13.1 °F /  -10.5 °C 1025.6 in /  34726.8 hPa SE 11.3 mph /  18.2 km/h 11.3 mph /  18.2 km/h 97 % 0.0 in /  0 mm
03:32 13.6 °F /  -10.2 °C 13.1 °F /  -10.5 °C 1025.6 in /  34726.8 hPa SE 3.2 mph /  5.1 km/h 9.7 mph /  15.6 km/h 97 % 0.0 in /  0 mm
03:37 13.5 °F /  -10.3 °C 12.9 °F /  -10.6 °C 1025.6 in /  34726.8 hPa ESE 3.2 mph /  5.1 km/h 11.3 mph /  18.2 km/h 96 % 0.0 in /  0 mm
03:42 13.4 °F /  -10.3 °C 12.8 °F /  -10.7 °C 1025.6 in /  34726.8 hPa SE 1.6 mph /  2.6 km/h 11.3 mph /  18.2 km/h 96 % 0.0 in /  0 mm
03:47 13.4 °F /  -10.3 °C 12.8 °F /  -10.7 °C 1025.3 in /  34716.7 hPa Calm   11.3 mph /  18.2 km/h 96 % 0.0 in /  0 mm
03:52 13.4 °F /  -10.3 °C 12.9 °F /  -10.6 °C 1025.3 in /  34716.7 hPa SSW 1.6 mph /  2.6 km/h 11.3 mph /  18.2 km/h 97 % 0.0 in /  0 mm
04:02 13.4 °F /  -10.3 °C 12.9 °F /  -10.6 °C 1025.3 in /  34716.7 hPa SSE 1.6 mph /  2.6 km/h 8.0 mph /  12.9 km/h 97 % 0.0 in /  0 mm
04:07 13.4 °F /  -10.3 °C 12.9 °F /  -10.6 °C 1025.3 in /  34716.7 hPa SSE 3.2 mph /  5.1 km/h 9.7 mph /  15.6 km/h 97 % 0.0 in /  0 mm
04:12 13.4 °F /  -10.3 °C 12.9 °F /  -10.6 °C 1024.9 in /  34703.1 hPa ESE 1.6 mph /  2.6 km/h 9.7 mph /  15.6 km/h 97 % 0.0 in /  0 mm
04:17 13.4 °F /  -10.3 °C 12.9 °F /  -10.6 °C 1024.9 in /  34703.1 hPa ESE 3.2 mph /  5.1 km/h 9.7 mph /  15.6 km/h 97 % 0.0 in /  0 mm
04:22 13.4 °F /  -10.3 °C 12.9 °F /  -10.6 °C 1024.9 in /  34703.1 hPa ESE 4.8 mph /  7.7 km/h 9.7 mph /  15.6 km/h 97 % 0.0 in /  0 mm
04:32 13.4 °F /  -10.3 °C 12.9 °F /  -10.6 °C 1024.9 in /  34703.1 hPa SE 4.8 mph /  7.7 km/h 9.7 mph /  15.6 km/h 97 % 0.0 in /  0 mm
04:42 13.4 °F /  -10.3 °C 12.9 °F /  -10.6 °C 1024.9 in /  34703.1 hPa SSE 3.2 mph /  5.1 km/h 9.7 mph /  15.6 km/h 97 % 0.0 in /  0 mm
04:47 13.4 °F /  -10.3 °C 12.9 °F /  -10.6 °C 1024.9 in /  34703.1 hPa SE 1.6 mph /  2.6 km/h 8.0 mph /  12.9 km/h 97 % 0.0 in /  0 mm
04:52 13.4 °F /  -10.3 °C 12.9 °F /  -10.6 °C 1024.9 in /  34703.1 hPa SSE 1.6 mph /  2.6 km/h 8.0 mph /  12.9 km/h 97 % 0.0 in /  0 mm
04:57 13.4 °F /  -10.3 °C 12.9 °F /  -10.6 °C 1024.9 in /  34703.1 hPa Calm   6.4 mph /  10.3 km/h 97 % 0.0 in /  0 mm
05:02 13.4 °F /  -10.3 °C 12.9 °F /  -10.6 °C 1024.9 in /  34703.1 hPa SE 1.6 mph /  2.6 km/h 6.4 mph /  10.3 km/h 97 % 0.0 in /  0 mm
05:12 13.4 °F /  -10.3 °C 12.9 °F /  -10.6 °C 1024.9 in /  34703.1 hPa SE 1.6 mph /  2.6 km/h 9.7 mph /  15.6 km/h 97 % 0.0 in /  0 mm
05:17 13.4 °F /  -10.3 °C 12.9 °F /  -10.6 °C 1024.9 in /  34703.1 hPa Calm   9.7 mph /  15.6 km/h 97 % 0.0 in /  0 mm
05:22 13.4 °F /  -10.3 °C 12.9 °F /  -10.6 °C 1024.6 in /  34693 hPa Calm   9.7 mph /  15.6 km/h 97 % 0.0 in /  0 mm
05:32 13.4 °F /  -10.3 °C 12.9 °F /  -10.6 °C 1024.6 in /  34693 hPa SE 6.4 mph /  10.3 km/h 11.3 mph /  18.2 km/h 97 % 0.0 in /  0 mm
05:42 13.3 °F /  -10.4 °C 12.8 °F /  -10.7 °C 1024.6 in /  34693 hPa SE 1.6 mph /  2.6 km/h 8.0 mph /  12.9 km/h 97 % 0.0 in /  0 mm
05:47 13.3 °F /  -10.4 °C 12.8 °F /  -10.7 °C 1024.6 in /  34693 hPa South 3.2 mph /  5.1 km/h 9.7 mph /  15.6 km/h 97 % 0.0 in /  0 mm
05:52 13.3 °F /  -10.4 °C 12.8 °F /  -10.7 °C 1024.6 in /  34693 hPa Calm   9.7 mph /  15.6 km/h 97 % 0.0 in /  0 mm
06:02 13.3 °F /  -10.4 °C 12.8 °F /  -10.7 °C 1024.6 in /  34693 hPa SE 1.6 mph /  2.6 km/h 9.7 mph /  15.6 km/h 97 % 0.0 in /  0 mm
06:12 13.2 °F /  -10.4 °C 12.7 °F /  -10.7 °C 1024.6 in /  34693 hPa SE 1.6 mph /  2.6 km/h 8.0 mph /  12.9 km/h 97 % 0.0 in /  0 mm
06:22 13.2 °F /  -10.4 °C 12.7 °F /  -10.7 °C 1024.6 in /  34693 hPa SSW 3.2 mph /  5.1 km/h 4.8 mph /  7.7 km/h 97 % 0.0 in /  0 mm
06:27 13.2 °F /  -10.4 °C 12.7 °F /  -10.7 °C 1024.6 in /  34693 hPa SSE 3.2 mph /  5.1 km/h 6.4 mph /  10.3 km/h 97 % 0.0 in /  0 mm
06:32 13.2 °F /  -10.4 °C 12.7 °F /  -10.7 °C 1024.6 in /  34693 hPa ESE 1.6 mph /  2.6 km/h 6.4 mph /  10.3 km/h 97 % 0.0 in /  0 mm
06:37 13.1 °F /  -10.5 °C 12.6 °F /  -10.8 °C 1024.6 in /  34693 hPa Calm   4.8 mph /  7.7 km/h 97 % 0.0 in /  0 mm
06:42 13.1 °F /  -10.5 °C 12.6 °F /  -10.8 °C 1024.3 in /  34682.8 hPa Calm   4.8 mph /  7.7 km/h 97 % 0.0 in /  0 mm
06:47 13.1 °F /  -10.5 °C 12.6 °F /  -10.8 °C 1024.3 in /  34682.8 hPa Calm   6.4 mph /  10.3 km/h 97 % 0.0 in /  0 mm
06:52 13.1 °F /  -10.5 °C 12.6 °F /  -10.8 °C 1024.6 in /  34693 hPa Calm   6.4 mph /  10.3 km/h 97 % 0.0 in /  0 mm
07:02 12.9 °F /  -10.6 °C 12.3 °F /  -10.9 °C 1024.3 in /  34682.8 hPa Calm   4.8 mph /  7.7 km/h 96 % 0.0 in /  0 mm
07:07 12.8 °F /  -10.7 °C 12.2 °F /  -11 °C 1024.6 in /  34693 hPa Calm   1.6 mph /  2.6 km/h 96 % 0.0 in /  0 mm
07:12 12.7 °F /  -10.7 °C 12.1 °F /  -11.1 °C 1024.6 in /  34693 hPa Calm   1.6 mph /  2.6 km/h 96 % 0.0 in /  0 mm
07:17 12.6 °F /  -10.8 °C 12.0 °F /  -11.1 °C 1024.6 in /  34693 hPa Calm   3.2 mph /  5.1 km/h 96 % 0.0 in /  0 mm
07:22 12.6 °F /  -10.8 °C 12.1 °F /  -11.1 °C 1024.6 in /  34693 hPa Calm   3.2 mph /  5.1 km/h 97 % 0.0 in /  0 mm
07:32 12.5 °F /  -10.8 °C 12.0 °F /  -11.1 °C 1024.6 in /  34693 hPa Calm   1.6 mph /  2.6 km/h 97 % 0.0 in /  0 mm
07:42 12.4 °F /  -10.9 °C 11.9 °F /  -11.2 °C 1024.6 in /  34693 hPa Calm   1.6 mph /  2.6 km/h 97 % 0.0 in /  0 mm
07:52 12.3 °F /  -10.9 °C 11.8 °F /  -11.2 °C 1024.6 in /  34693 hPa Calm   1.6 mph /  2.6 km/h 97 % 0.0 in /  0 mm
07:57 12.3 °F /  -10.9 °C 11.8 °F /  -11.2 °C 1024.6 in /  34693 hPa Calm     97 % 0.0 in /  0 mm
08:02 12.3 °F /  -10.9 °C 11.8 °F /  -11.2 °C 1024.9 in /  34703.1 hPa Calm     97 % 0.0 in /  0 mm
08:07 12.3 °F /  -10.9 °C 11.8 °F /  -11.2 °C 1024.6 in /  34693 hPa Calm     97 % 0.0 in /  0 mm
08:12 12.3 °F /  -10.9 °C 11.8 °F /  -11.2 °C 1024.9 in /  34703.1 hPa Calm     97 % 0.0 in /  0 mm
08:17 12.2 °F /  -11 °C 11.7 °F /  -11.3 °C 1024.9 in /  34703.1 hPa Calm     97 % 0.0 in /  0 mm
08:22 12.1 °F /  -11.1 °C 11.6 °F /  -11.3 °C 1024.9 in /  34703.1 hPa Calm     97 % 0.0 in /  0 mm
08:32 11.9 °F /  -11.2 °C 11.4 °F /  -11.4 °C 1024.9 in /  34703.1 hPa Calm     97 % 0.0 in /  0 mm
08:42 11.9 °F /  -11.2 °C 11.4 °F /  -11.4 °C 1024.9 in /  34703.1 hPa Calm     97 % 0.0 in /  0 mm
08:47 11.9 °F /  -11.2 °C 11.4 °F /  -11.4 °C 1024.9 in /  34703.1 hPa Calm     97 % 0.0 in /  0 mm
08:52 11.9 °F /  -11.2 °C 11.4 °F /  -11.4 °C 1024.9 in /  34703.1 hPa Calm     97 % 0.0 in /  0 mm
08:57 11.9 °F /  -11.2 °C 11.4 °F /  -11.4 °C 1024.9 in /  34703.1 hPa Calm     97 % 0.0 in /  0 mm
09:02 12.0 °F /  -11.1 °C 11.5 °F /  -11.4 °C 1024.9 in /  34703.1 hPa Calm     97 % 0.0 in /  0 mm
09:12 12.1 °F /  -11.1 °C 11.6 °F /  -11.3 °C 1025.3 in /  34716.7 hPa Calm     97 % 0.0 in /  0 mm
09:17 12.2 °F /  -11 °C 11.7 °F /  -11.3 °C 1024.9 in /  34703.1 hPa Calm     97 % 0.0 in /  0 mm
09:22 12.4 °F /  -10.9 °C 11.9 °F /  -11.2 °C 1025.3 in /  34716.7 hPa Calm     97 % 0.0 in /  0 mm
09:32 12.7 °F /  -10.7 °C 12.2 °F /  -11 °C 1024.9 in /  34703.1 hPa Calm     97 % 0.0 in /  0 mm
09:42 12.9 °F /  -10.6 °C 12.4 °F /  -10.9 °C 1025.3 in /  34716.7 hPa Calm   1.6 mph /  2.6 km/h 97 % 0.0 in /  0 mm
09:52 13.3 °F /  -10.4 °C 12.8 °F /  -10.7 °C 1024.9 in /  34703.1 hPa Calm   1.6 mph /  2.6 km/h 97 % 0.0 in /  0 mm
10:02 13.4 °F /  -10.3 °C 12.6 °F /  -10.8 °C 1024.9 in /  34703.1 hPa SSE 3.2 mph /  5.1 km/h 3.2 mph /  5.1 km/h 95 % 0.0 in /  0 mm
10:12 13.4 °F /  -10.3 °C 12.6 °F /  -10.8 °C 1024.9 in /  34703.1 hPa Calm   3.2 mph /  5.1 km/h 95 % 0.0 in /  0 mm
10:17 13.6 °F /  -10.2 °C 12.8 °F /  -10.7 °C 1024.9 in /  34703.1 hPa Calm   8.0 mph /  12.9 km/h 95 % 0.0 in /  0 mm
10:22 13.8 °F /  -10.1 °C 13.0 °F /  -10.6 °C 1024.9 in /  34703.1 hPa Calm   8.0 mph /  12.9 km/h 95 % 0.0 in /  0 mm
10:32 13.7 °F /  -10.2 °C 12.6 °F /  -10.8 °C 1025.3 in /  34716.7 hPa South 1.6 mph /  2.6 km/h 8.0 mph /  12.9 km/h 93 % 0.0 in /  0 mm
10:42 13.8 °F /  -10.1 °C 12.7 °F /  -10.7 °C 1025.3 in /  34716.7 hPa Calm   6.4 mph /  10.3 km/h 93 % 0.0 in /  0 mm
10:47 14.0 °F /  -10 °C 12.9 °F /  -10.6 °C 1025.3 in /  34716.7 hPa South 3.2 mph /  5.1 km/h 6.4 mph /  10.3 km/h 93 % 0.0 in /  0 mm
10:52 14.2 °F /  -9.9 °C 12.9 °F /  -10.6 °C 1025.3 in /  34716.7 hPa SSW 1.6 mph /  2.6 km/h 6.4 mph /  10.3 km/h 92 % 0.0 in /  0 mm
11:02 14.6 °F /  -9.7 °C 13.3 °F /  -10.4 °C 1025.3 in /  34716.7 hPa SSE 4.8 mph /  7.7 km/h 6.4 mph /  10.3 km/h 92 % 0.0 in /  0 mm
11:07 14.6 °F /  -9.7 °C 13.0 °F /  -10.6 °C 1025.3 in /  34716.7 hPa SW 3.2 mph /  5.1 km/h 8.0 mph /  12.9 km/h 90 % 0.0 in /  0 mm
11:12 14.7 °F /  -9.6 °C 13.1 °F /  -10.5 °C 1025.3 in /  34716.7 hPa SW 4.8 mph /  7.7 km/h 8.0 mph /  12.9 km/h 90 % 0.0 in /  0 mm
11:17 14.8 °F /  -9.6 °C 13.2 °F /  -10.4 °C 1025.6 in /  34726.8 hPa Calm   9.7 mph /  15.6 km/h 90 % 0.0 in /  0 mm
11:22 15.1 °F /  -9.4 °C 13.5 °F /  -10.3 °C 1025.6 in /  34726.8 hPa SE 1.6 mph /  2.6 km/h 9.7 mph /  15.6 km/h 90 % 0.0 in /  0 mm
11:32 15.4 °F /  -9.2 °C 13.4 °F /  -10.3 °C 1025.6 in /  34726.8 hPa SSW 4.8 mph /  7.7 km/h 8.0 mph /  12.9 km/h 88 % 0.0 in /  0 mm
11:52 16.2 °F /  -8.8 °C 13.9 °F /  -10.1 °C 1025.6 in /  34726.8 hPa SSE 1.6 mph /  2.6 km/h 4.8 mph /  7.7 km/h 86 % 0.0 in /  0 mm
11:57 16.3 °F /  -8.7 °C 13.6 °F /  -10.2 °C 1025.6 in /  34726.8 hPa SE 3.2 mph /  5.1 km/h 6.4 mph /  10.3 km/h 84 % 0.0 in /  0 mm
12:02 16.4 °F /  -8.7 °C 14.1 °F /  -9.9 °C 1025.6 in /  34726.8 hPa South 4.8 mph /  7.7 km/h 6.4 mph /  10.3 km/h 86 % 0.0 in /  0 mm
12:07 16.5 °F /  -8.6 °C 13.8 °F /  -10.1 °C 1025.3 in /  34716.7 hPa ENE 1.6 mph /  2.6 km/h 6.4 mph /  10.3 km/h 84 % 0.0 in /  0 mm
12:12 16.8 °F /  -8.4 °C 14.1 °F /  -9.9 °C 1025.3 in /  34716.7 hPa SSW 6.4 mph /  10.3 km/h 6.4 mph /  10.3 km/h 84 % 0.0 in /  0 mm
12:17 16.7 °F /  -8.5 °C 13.8 °F /  -10.1 °C 1025.3 in /  34716.7 hPa SSW 3.2 mph /  5.1 km/h 6.4 mph /  10.3 km/h 83 % 0.0 in /  0 mm
12:22 16.9 °F /  -8.4 °C 14.2 °F /  -9.9 °C 1025.3 in /  34716.7 hPa SSW 3.2 mph /  5.1 km/h 6.4 mph /  10.3 km/h 84 % 0.0 in /  0 mm
12:32 17.0 °F /  -8.3 °C 14.1 °F /  -9.9 °C 1025.6 in /  34726.8 hPa East 1.6 mph /  2.6 km/h 6.4 mph /  10.3 km/h 83 % 0.0 in /  0 mm
12:42 17.2 °F /  -8.2 °C 14.3 °F /  -9.8 °C 1025.6 in /  34726.8 hPa Calm   9.7 mph /  15.6 km/h 83 % 0.0 in /  0 mm
12:47 17.2 °F /  -8.2 °C 14.1 °F /  -9.9 °C 1025.6 in /  34726.8 hPa SSE 1.6 mph /  2.6 km/h 8.0 mph /  12.9 km/h 82 % 0.0 in /  0 mm
12:52 17.3 °F /  -8.2 °C 14.4 °F /  -9.8 °C 1025.6 in /  34726.8 hPa Calm   8.0 mph /  12.9 km/h 83 % 0.0 in /  0 mm
13:02 17.2 °F /  -8.2 °C 13.9 °F /  -10.1 °C 1025.6 in /  34726.8 hPa Calm   6.4 mph /  10.3 km/h 81 % 0.0 in /  0 mm
13:12 17.4 °F /  -8.1 °C 14.1 °F /  -9.9 °C 1025.6 in /  34726.8 hPa SSW 3.2 mph /  5.1 km/h 6.4 mph /  10.3 km/h 81 % 0.0 in /  0 mm
13:17 17.5 °F /  -8.1 °C 14.2 °F /  -9.9 °C 1025.6 in /  34726.8 hPa SSW 3.2 mph /  5.1 km/h 6.4 mph /  10.3 km/h 81 % 0.0 in /  0 mm
13:22 17.6 °F /  -8 °C 14.3 °F /  -9.8 °C 1025.6 in /  34726.8 hPa SSW 1.6 mph /  2.6 km/h 6.4 mph /  10.3 km/h 81 % 0.0 in /  0 mm
13:32 18.1 °F /  -7.7 °C 14.6 °F /  -9.7 °C 1025.3 in /  34716.7 hPa Calm   6.4 mph /  10.3 km/h 80 % 0.0 in /  0 mm
13:42 18.4 °F /  -7.6 °C 14.7 °F /  -9.6 °C 1025.3 in /  34716.7 hPa SW 4.8 mph /  7.7 km/h 4.8 mph /  7.7 km/h 79 % 0.0 in /  0 mm
13:52 18.5 °F /  -7.5 °C 14.6 °F /  -9.7 °C 1025.3 in /  34716.7 hPa Calm   6.4 mph /  10.3 km/h 78 % 0.0 in /  0 mm
14:02 18.8 °F /  -7.3 °C 14.9 °F /  -9.5 °C 1025.3 in /  34716.7 hPa Calm   6.4 mph /  10.3 km/h 78 % 0.0 in /  0 mm
14:12 18.9 °F /  -7.3 °C 15.0 °F /  -9.4 °C 1024.9 in /  34703.1 hPa SW 3.2 mph /  5.1 km/h 6.4 mph /  10.3 km/h 78 % 0.0 in /  0 mm
14:17 18.9 °F /  -7.3 °C 14.8 °F /  -9.6 °C 1024.9 in /  34703.1 hPa SSE 3.2 mph /  5.1 km/h 9.7 mph /  15.6 km/h 77 % 0.0 in /  0 mm
14:22 19.3 °F /  -7.1 °C 15.4 °F /  -9.2 °C 1024.9 in /  34703.1 hPa SW 3.2 mph /  5.1 km/h 9.7 mph /  15.6 km/h 78 % 0.0 in /  0 mm
14:32 19.4 °F /  -7 °C 15.1 °F /  -9.4 °C 1024.9 in /  34703.1 hPa SSW 3.2 mph /  5.1 km/h 9.7 mph /  15.6 km/h 76 % 0.0 in /  0 mm
14:42 19.5 °F /  -6.9 °C 15.2 °F /  -9.3 °C 1024.9 in /  34703.1 hPa SSW 3.2 mph /  5.1 km/h 8.0 mph /  12.9 km/h 76 % 0.0 in /  0 mm
14:52 19.6 °F /  -6.9 °C 14.8 °F /  -9.6 °C 1024.9 in /  34703.1 hPa South 4.8 mph /  7.7 km/h 8.0 mph /  12.9 km/h 74 % 0.0 in /  0 mm
15:02 19.8 °F /  -6.8 °C 15.2 °F /  -9.3 °C 1024.6 in /  34693 hPa South 3.2 mph /  5.1 km/h 9.7 mph /  15.6 km/h 75 % 0.0 in /  0 mm
15:07 20.1 °F /  -6.6 °C 15.3 °F /  -9.3 °C 1024.6 in /  34693 hPa WSW 4.8 mph /  7.7 km/h 9.7 mph /  15.6 km/h 74 % 0.0 in /  0 mm
15:12 20.2 °F /  -6.6 °C 15.6 °F /  -9.1 °C 1024.6 in /  34693 hPa SSW 3.2 mph /  5.1 km/h 9.7 mph /  15.6 km/h 75 % 0.0 in /  0 mm
15:22 20.2 °F /  -6.6 °C 15.2 °F /  -9.3 °C 1024.6 in /  34693 hPa SSW 1.6 mph /  2.6 km/h 8.0 mph /  12.9 km/h 73 % 0.0 in /  0 mm
15:32 20.7 °F /  -6.3 °C 15.3 °F /  -9.3 °C 1024.9 in /  34703.1 hPa SW 4.8 mph /  7.7 km/h 8.0 mph /  12.9 km/h 71 % 0.0 in /  0 mm
15:42 20.5 °F /  -6.4 °C 15.5 °F /  -9.2 °C 1024.9 in /  34703.1 hPa Calm   6.4 mph /  10.3 km/h 73 % 0.0 in /  0 mm
15:47 20.9 °F /  -6.2 °C 15.7 °F /  -9.1 °C 1024.9 in /  34703.1 hPa Calm   6.4 mph /  10.3 km/h 72 % 0.0 in /  0 mm
15:52 20.9 °F /  -6.2 °C 15.4 °F /  -9.2 °C 1024.9 in /  34703.1 hPa SSW 3.2 mph /  5.1 km/h 6.4 mph /  10.3 km/h 71 % 0.0 in /  0 mm
15:57 20.8 °F /  -6.2 °C 15.3 °F /  -9.3 °C 1024.9 in /  34703.1 hPa Calm   8.0 mph /  12.9 km/h 71 % 0.0 in /  0 mm
16:02 21.1 °F /  -6.1 °C 15.4 °F /  -9.2 °C 1024.6 in /  34693 hPa Calm   8.0 mph /  12.9 km/h 70 % 0.0 in /  0 mm
16:12 21.4 °F /  -5.9 °C 15.7 °F /  -9.1 °C 1024.9 in /  34703.1 hPa SW 1.6 mph /  2.6 km/h 6.4 mph /  10.3 km/h 70 % 0.0 in /  0 mm
16:17 21.4 °F /  -5.9 °C 15.5 °F /  -9.2 °C 1024.6 in /  34693 hPa WSW 1.6 mph /  2.6 km/h 6.4 mph /  10.3 km/h 69 % 0.0 in /  0 mm
16:22 21.4 °F /  -5.9 °C 15.5 °F /  -9.2 °C 1024.6 in /  34693 hPa Calm   6.4 mph /  10.3 km/h 69 % 0.0 in /  0 mm
16:32 21.6 °F /  -5.8 °C 15.4 °F /  -9.2 °C 1024.9 in /  34703.1 hPa Calm   6.4 mph /  10.3 km/h 68 % 0.0 in /  0 mm
16:37 21.5 °F /  -5.8 °C 15.3 °F /  -9.3 °C 1024.9 in /  34703.1 hPa WSW 1.6 mph /  2.6 km/h 4.8 mph /  7.7 km/h 68 % 0.0 in /  0 mm
16:42 21.5 °F /  -5.8 °C 15.6 °F /  -9.1 °C 1024.9 in /  34703.1 hPa Calm   4.8 mph /  7.7 km/h 69 % 0.0 in /  0 mm
16:47 21.6 °F /  -5.8 °C 15.4 °F /  -9.2 °C 1024.9 in /  34703.1 hPa Calm   4.8 mph /  7.7 km/h 68 % 0.0 in /  0 mm
16:52 21.6 °F /  -5.8 °C 15.7 °F /  -9.1 °C 1024.6 in /  34693 hPa Calm   4.8 mph /  7.7 km/h 69 % 0.0 in /  0 mm
16:57 21.9 °F /  -5.6 °C 15.7 °F /  -9.1 °C 1024.6 in /  34693 hPa Calm   3.2 mph /  5.1 km/h 68 % 0.0 in /  0 mm
17:02 21.9 °F /  -5.6 °C 15.7 °F /  -9.1 °C 1024.9 in /  34703.1 hPa Calm   3.2 mph /  5.1 km/h 68 % 0.0 in /  0 mm
17:12 22.0 °F /  -5.6 °C 15.6 °F /  -9.1 °C 1024.6 in /  34693 hPa Calm   3.2 mph /  5.1 km/h 67 % 0.0 in /  0 mm
17:17 21.9 °F /  -5.6 °C 15.7 °F /  -9.1 °C 1024.6 in /  34693 hPa Calm   4.8 mph /  7.7 km/h 68 % 0.0 in /  0 mm
17:27 22.1 °F /  -5.5 °C 15.9 °F /  -8.9 °C 1024.9 in /  34703.1 hPa Calm   4.8 mph /  7.7 km/h 68 % 0.0 in /  0 mm
17:32 22.2 °F /  -5.4 °C 15.8 °F /  -9 °C 1024.9 in /  34703.1 hPa Calm   4.8 mph /  7.7 km/h 67 % 0.0 in /  0 mm
17:42 21.7 °F /  -5.7 °C 15.8 °F /  -9 °C 1024.9 in /  34703.1 hPa Calm   3.2 mph /  5.1 km/h 69 % 0.0 in /  0 mm
17:47 21.7 °F /  -5.7 °C 15.8 °F /  -9 °C 1024.9 in /  34703.1 hPa Calm   3.2 mph /  5.1 km/h 69 % 0.0 in /  0 mm
17:52 21.7 °F /  -5.7 °C 15.8 °F /  -9 °C 1024.9 in /  34703.1 hPa Calm   3.2 mph /  5.1 km/h 69 % 0.0 in /  0 mm
18:12 22.0 °F /  -5.6 °C 15.6 °F /  -9.1 °C 1024.9 in /  34703.1 hPa Calm   1.6 mph /  2.6 km/h 67 % 0.0 in /  0 mm
18:17 21.8 °F /  -5.7 °C 15.6 °F /  -9.1 °C 1024.9 in /  34703.1 hPa Calm   1.6 mph /  2.6 km/h 68 % 0.0 in /  0 mm
18:22 21.3 °F /  -5.9 °C 15.6 °F /  -9.1 °C 1024.9 in /  34703.1 hPa East 1.6 mph /  2.6 km/h 1.6 mph /  2.6 km/h 70 % 0.0 in /  0 mm
18:27 20.7 °F /  -6.3 °C 15.5 °F /  -9.2 °C 1024.9 in /  34703.1 hPa East 1.6 mph /  2.6 km/h 1.6 mph /  2.6 km/h 72 % 0.0 in /  0 mm
18:32 20.2 °F /  -6.6 °C 15.4 °F /  -9.2 °C 1024.9 in /  34703.1 hPa Calm   3.2 mph /  5.1 km/h 74 % 0.0 in /  0 mm
18:37 19.8 °F /  -6.8 °C 15.2 °F /  -9.3 °C 1024.9 in /  34703.1 hPa Calm   3.2 mph /  5.1 km/h 75 % 0.0 in /  0 mm
18:42 19.6 °F /  -6.9 °C 15.5 °F /  -9.2 °C 1024.9 in /  34703.1 hPa Calm   1.6 mph /  2.6 km/h 77 % 0.0 in /  0 mm
18:57 18.2 °F /  -7.7 °C 15.1 °F /  -9.4 °C 1024.9 in /  34703.1 hPa Calm     82 % 0.0 in /  0 mm
19:02 18.0 °F /  -7.8 °C 14.9 °F /  -9.5 °C 1024.9 in /  34703.1 hPa Calm     82 % 0.0 in /  0 mm
19:12 17.6 °F /  -8 °C 14.9 °F /  -9.5 °C 1024.9 in /  34703.1 hPa Calm     84 % 0.0 in /  0 mm
19:17 17.3 °F /  -8.2 °C 14.8 °F /  -9.6 °C 1024.9 in /  34703.1 hPa Calm     85 % 0.0 in /  0 mm
19:22 17.1 °F /  -8.3 °C 14.7 °F /  -9.6 °C 1024.9 in /  34703.1 hPa Calm     86 % 0.0 in /  0 mm
19:27 16.9 °F /  -8.4 °C 14.5 °F /  -9.7 °C 1025.3 in /  34716.7 hPa East 1.6 mph /  2.6 km/h   86 % 0.0 in /  0 mm
19:32 16.8 °F /  -8.4 °C 14.6 °F /  -9.7 °C 1025.3 in /  34716.7 hPa NNE 1.6 mph /  2.6 km/h   87 % 0.0 in /  0 mm
19:37 16.8 °F /  -8.4 °C 14.6 °F /  -9.7 °C 1025.3 in /  34716.7 hPa Calm   3.2 mph /  5.1 km/h 87 % 0.0 in /  0 mm
19:42 16.8 °F /  -8.4 °C 14.6 °F /  -9.7 °C 1025.3 in /  34716.7 hPa Calm   3.2 mph /  5.1 km/h 87 % 0.0 in /  0 mm
19:47 16.6 °F /  -8.6 °C 14.4 °F /  -9.8 °C 1025.3 in /  34716.7 hPa NNW 1.6 mph /  2.6 km/h 1.6 mph /  2.6 km/h 87 % 0.0 in /  0 mm
19:52 16.3 °F /  -8.7 °C 14.5 °F /  -9.7 °C 1025.3 in /  34716.7 hPa Calm   1.6 mph /  2.6 km/h 89 % 0.0 in /  0 mm
19:57 16.0 °F /  -8.9 °C 14.2 °F /  -9.9 °C 1025.3 in /  34716.7 hPa NW 1.6 mph /  2.6 km/h 1.6 mph /  2.6 km/h 89 % 0.0 in /  0 mm
20:02 15.8 °F /  -9 °C 14.2 °F /  -9.9 °C 1025.3 in /  34716.7 hPa NW 1.6 mph /  2.6 km/h 1.6 mph /  2.6 km/h 90 % 0.0 in /  0 mm
20:12 15.6 °F /  -9.1 °C 14.1 °F /  -9.9 °C 1025.3 in /  34716.7 hPa Calm   1.6 mph /  2.6 km/h 91 % 0.0 in /  0 mm
20:17 15.3 °F /  -9.3 °C 13.8 °F /  -10.1 °C 1025.3 in /  34716.7 hPa NW 1.6 mph /  2.6 km/h 1.6 mph /  2.6 km/h 91 % 0.0 in /  0 mm
20:22 15.2 °F /  -9.3 °C 13.9 °F /  -10.1 °C 1024.9 in /  34703.1 hPa Calm   1.6 mph /  2.6 km/h 92 % 0.0 in /  0 mm
20:32 15.3 °F /  -9.3 °C 14.2 °F /  -9.9 °C 1025.3 in /  34716.7 hPa Calm   1.6 mph /  2.6 km/h 93 % 0.0 in /  0 mm
20:42 14.8 °F /  -9.6 °C 13.7 °F /  -10.2 °C 1025.3 in /  34716.7 hPa NW 1.6 mph /  2.6 km/h 1.6 mph /  2.6 km/h 93 % 0.0 in /  0 mm
20:47 14.9 °F /  -9.5 °C 13.9 °F /  -10.1 °C 1025.3 in /  34716.7 hPa North 1.6 mph /  2.6 km/h 1.6 mph /  2.6 km/h 94 % 0.0 in /  0 mm
20:52 15.0 °F /  -9.4 °C 14.0 °F /  -10 °C 1025.3 in /  34716.7 hPa Calm   1.6 mph /  2.6 km/h 94 % 0.0 in /  0 mm
20:57 15.1 °F /  -9.4 °C 14.1 °F /  -9.9 °C 1025.3 in /  34716.7 hPa Calm   1.6 mph /  2.6 km/h 94 % 0.0 in /  0 mm
21:02 14.9 °F /  -9.5 °C 13.8 °F /  -10.1 °C 1025.3 in /  34716.7 hPa Calm   1.6 mph /  2.6 km/h 93 % 0.0 in /  0 mm
21:12 14.7 °F /  -9.6 °C 13.7 °F /  -10.2 °C 1025.3 in /  34716.7 hPa Calm   1.6 mph /  2.6 km/h 94 % 0.0 in /  0 mm
21:17 14.6 °F /  -9.7 °C 13.6 °F /  -10.2 °C 1025.3 in /  34716.7 hPa Calm   1.6 mph /  2.6 km/h 94 % 0.0 in /  0 mm
21:22 14.6 °F /  -9.7 °C 13.6 °F /  -10.2 °C 1025.3 in /  34716.7 hPa Calm   1.6 mph /  2.6 km/h 94 % 0.0 in /  0 mm
21:27 14.5 °F /  -9.7 °C 13.5 °F /  -10.3 °C 1025.3 in /  34716.7 hPa Calm   1.6 mph /  2.6 km/h 94 % 0.0 in /  0 mm
21:32 14.5 °F /  -9.7 °C 13.5 °F /  -10.3 °C 1025.3 in /  34716.7 hPa Calm   1.6 mph /  2.6 km/h 94 % 0.0 in /  0 mm
21:42 14.4 °F /  -9.8 °C 13.4 °F /  -10.3 °C 1025.3 in /  34716.7 hPa North 3.2 mph /  5.1 km/h 3.2 mph /  5.1 km/h 94 % 0.0 in /  0 mm
21:52 14.3 °F /  -9.8 °C 13.3 °F /  -10.4 °C 1025.3 in /  34716.7 hPa Calm   3.2 mph /  5.1 km/h 94 % 0.0 in /  0 mm
21:57 14.0 °F /  -10 °C 13.0 °F /  -10.6 °C 1025.3 in /  34716.7 hPa Calm   3.2 mph /  5.1 km/h 94 % 0.0 in /  0 mm
22:02 14.0 °F /  -10 °C 13.2 °F /  -10.4 °C 1025.3 in /  34716.7 hPa Calm   3.2 mph /  5.1 km/h 95 % 0.0 in /  0 mm
22:12 14.2 °F /  -9.9 °C 13.4 °F /  -10.3 °C 1025.6 in /  34726.8 hPa Calm   3.2 mph /  5.1 km/h 95 % 0.0 in /  0 mm
22:17 14.3 °F /  -9.8 °C 13.5 °F /  -10.3 °C 1025.6 in /  34726.8 hPa Calm   3.2 mph /  5.1 km/h 95 % 0.0 in /  0 mm
22:22 14.1 °F /  -9.9 °C 13.1 °F /  -10.5 °C 1025.6 in /  34726.8 hPa Calm   3.2 mph /  5.1 km/h 94 % 0.0 in /  0 mm
22:27 14.0 °F /  -10 °C 13.2 °F /  -10.4 °C 1025.6 in /  34726.8 hPa Calm     95 % 0.0 in /  0 mm
22:32 13.9 °F /  -10.1 °C 12.9 °F /  -10.6 °C 1025.6 in /  34726.8 hPa Calm     94 % 0.0 in /  0 mm
22:37 13.6 °F /  -10.2 °C 12.7 °F /  -10.7 °C 1025.6 in /  34726.8 hPa Calm     94 % 0.0 in /  0 mm
22:44 13.6 °F /  -10.2 °C 12.8 °F /  -10.7 °C 1025.6 in /  34726.8 hPa Calm     95 % 0.0 in /  0 mm
22:52 13.6 °F /  -10.2 °C 12.8 °F /  -10.7 °C 1026.0 in /  34740.4 hPa Calm     95 % 0.0 in /  0 mm
23:02 13.4 °F /  -10.3 °C 12.6 °F /  -10.8 °C 1026.0 in /  34740.4 hPa Calm     95 % 0.0 in /  0 mm
23:07 13.3 °F /  -10.4 °C 12.5 °F /  -10.8 °C 1026.0 in /  34740.4 hPa Calm   1.6 mph /  2.6 km/h 95 % 0.0 in /  0 mm
23:12 13.2 °F /  -10.4 °C 12.4 °F /  -10.9 °C 1026.0 in /  34740.4 hPa NNE 1.6 mph /  2.6 km/h 1.6 mph /  2.6 km/h 95 % 0.0 in /  0 mm
23:17 13.1 °F /  -10.5 °C 12.5 °F /  -10.8 °C 1026.0 in /  34740.4 hPa NNE 3.2 mph /  5.1 km/h 3.2 mph /  5.1 km/h 96 % 0.0 in /  0 mm
23:22 13.3 °F /  -10.4 °C 12.7 °F /  -10.7 °C 1026.0 in /  34740.4 hPa North 1.6 mph /  2.6 km/h 3.2 mph /  5.1 km/h 96 % 0.0 in /  0 mm
23:32 13.3 °F /  -10.4 °C 12.7 °F /  -10.7 °C 1026.0 in /  34740.4 hPa Calm   3.2 mph /  5.1 km/h 96 % 0.0 in /  0 mm
23:42 12.9 °F /  -10.6 °C 12.1 °F /  -11.1 °C 1026.0 in /  34740.4 hPa WNW 1.6 mph /  2.6 km/h 3.2 mph /  5.1 km/h 95 % 0.0 in /  0 mm
23:52 12.8 °F /  -10.7 °C 12.2 °F /  -11 °C 1026.0 in /  34740.4 hPa Calm   3.2 mph /  5.1 km/h 96 % 0.0 in /  0 mm
23:57 13.0 °F /  -10.6 °C 12.4 °F /  -10.9 °C 1026.0 in /  34740.4 hPa Calm   3.2 mph /  5.1 km/h 96 % 0.0 in /  0 mm
Meteo18
Compliments of Weather Underground - 4 mb

Script developed by  Jim McMurry - jmcmurry@mwt.net Adapted for the template by  Wim van der Kuil - Leuven-Template.eu

You find our weather info also at:

European Weather Network

Weather Underground

Equipment we use:

Weather-station
Davis Vue

Weather-program
Meteobridge

Weather-server
Raspberry PI 2 B+

Provider
1 and 1

Davis Vue

Meteobridge

Raspberry PI 2 B+

1 and 1